Weather History for Grand Rapids, MN

Change the Weather History Date:

Tuesday, November 11, 2014

  Actual Average Record
Temperature  
Mean Temperature 19 °F -  
Max Temperature 21 °F 34 °F 80 °F (1930)
Min Temperature 17 °F 20 °F -2 °F (1947)
Degree Days  
Heating Degree Days 46    
Moisture  
Dew Point 10 °F    
Average Humidity 67    
Maximum Humidity 86    
Minimum Humidity 46    
Precipitation  
Precipitation 0.00 in - - ()
Sea Level Pressure  
Sea Level Pressure 30.12 in    
Wind  
Wind Speed 12 mph (North)    
Max Wind Speed 17 mph    
Max Gust Speed 23 mph    
Visibility 8 miles    
Events      
Averages and records for this station are not official NWS values.
T = Trace of Precipitation, MM = Missing Value Source: NWS Daily Summary

Daily Weather History Graph

Daily Weather History Graph

Search for Another Location

Airport:

Trip Planner

Search our weather history database for the weather conditions in past years. The results will help you decide how hot, cold, wet, or windy it might be!

Date:

Astronomy

Nov. 11, 2014 Rise Set
Actual Time 7:12 AM CST 4:43 PM CST
Civil Twilight 6:39 AM CST 5:16 PM CST
Nautical Twilight 6:02 AM CST 5:53 PM CST
Astronomical Twilight 5:26 AM CST 6:28 PM CST
Moon 9:07 PM CST (11/11) 11:20 AM CST (11/11)
Length of Visible Light 10h 37m
Length of Day
9h 31m
Waning Gibbous, 76% of the Moon is Illuminated
Nov 11
Waning Gibbous
Nov 14
Last Quarter
Nov 22
New
Nov 29
First Quarter
Dec 6
Full

Hourly Weather History & Observations

Time (CST) Temp. Windchill Dew Point Humidity Pressure Visibility Wind Dir Wind Speed Gust Speed Precip Events Conditions
12:15 AM 21.2 °F 10.9 °F 12.2 °F 68% 30.02 in 5.0 mi North 9.2 mph 18.4 mph N/A   Overcast
12:35 AM 21.2 °F 8.9 °F 14.0 °F 74% 30.01 in 2.5 mi North 12.7 mph 18.4 mph N/A   Overcast
12:55 AM 21.2 °F 10.1 °F 15.8 °F 80% 30.01 in 3.0 mi North 10.4 mph - N/A   Overcast
1:15 AM 21.2 °F 9.5 °F 15.8 °F 80% 30.02 in 3.0 mi North 11.5 mph - N/A   Overcast
1:35 AM 19.4 °F 8.6 °F 15.8 °F 86% 30.03 in 3.0 mi North 9.2 mph - N/A   Overcast
1:55 AM 19.4 °F 7.2 °F 15.8 °F 86% 30.05 in 3.0 mi North 11.5 mph 17.3 mph N/A   Overcast
2:15 AM 19.4 °F 5.5 °F 15.8 °F 86% 30.05 in 2.5 mi North 15.0 mph 19.6 mph N/A   Overcast
2:35 AM 19.4 °F 7.9 °F 14.0 °F 80% 30.06 in 3.0 mi North 10.4 mph 18.4 mph N/A   Overcast
2:55 AM 19.4 °F 8.6 °F 14.0 °F 80% 30.05 in 4.0 mi North 9.2 mph - N/A   Overcast
3:15 AM 19.4 °F 7.9 °F 14.0 °F 80% 30.05 in 3.0 mi North 10.4 mph 16.1 mph N/A   Overcast
3:35 AM 19.4 °F 8.6 °F 14.0 °F 80% 30.05 in 4.0 mi North 9.2 mph - N/A   Overcast
3:55 AM 19.4 °F 7.2 °F 14.0 °F 80% 30.05 in 5.0 mi North 11.5 mph - N/A   Overcast
4:15 AM 19.4 °F 8.6 °F 14.0 °F 80% 30.06 in 6.0 mi North 9.2 mph - N/A   Overcast
4:35 AM 19.4 °F 8.6 °F 14.0 °F 80% 30.07 in 7.0 mi North 9.2 mph - N/A   Overcast
4:55 AM 19.4 °F 9.5 °F 14.0 °F 80% 30.07 in 6.0 mi North 8.1 mph - N/A   Overcast
5:15 AM 19.4 °F 9.5 °F 14.0 °F 80% 30.08 in 3.0 mi North 8.1 mph - N/A   Overcast
5:35 AM 19.4 °F 7.2 °F 14.0 °F 80% 30.08 in 3.0 mi North 11.5 mph 18.4 mph N/A   Overcast
5:55 AM 19.4 °F 7.2 °F 12.2 °F 74% 30.08 in 3.0 mi North 11.5 mph 17.3 mph N/A   Overcast
6:15 AM 19.4 °F 7.9 °F 12.2 °F 74% 30.09 in 10.0 mi North 10.4 mph - N/A   Overcast
6:35 AM 19.4 °F 6.0 °F 12.2 °F 74% 30.09 in 10.0 mi North 13.8 mph 19.6 mph N/A   Overcast
6:55 AM 17.6 °F 5.0 °F 12.2 °F 79% 30.10 in 10.0 mi North 11.5 mph 18.4 mph N/A   Overcast
7:15 AM 17.6 °F 3.7 °F 12.2 °F 79% 30.11 in 10.0 mi North 13.8 mph - N/A   Overcast
7:35 AM 17.6 °F 5.0 °F 10.4 °F 73% 30.11 in 10.0 mi North 11.5 mph 18.4 mph N/A   Overcast
7:55 AM 17.6 °F 5.7 °F 10.4 °F 73% 30.12 in 10.0 mi North 10.4 mph 16.1 mph N/A   Overcast
8:15 AM 17.6 °F 5.0 °F 10.4 °F 73% 30.12 in 10.0 mi North 11.5 mph 17.3 mph N/A   Overcast
8:35 AM 17.6 °F 2.7 °F 10.4 °F 73% 30.12 in 10.0 mi North 16.1 mph - N/A   Overcast
8:55 AM 17.6 °F 4.3 °F 10.4 °F 73% 30.13 in 10.0 mi North 12.7 mph 21.9 mph N/A   Overcast
9:15 AM 17.6 °F 4.3 °F 10.4 °F 73% 30.13 in 10.0 mi North 12.7 mph 16.1 mph N/A   Overcast
9:35 AM 17.6 °F 5.7 °F 8.6 °F 68% 30.12 in 10.0 mi North 10.4 mph 20.7 mph N/A   Overcast
9:55 AM 19.4 °F 6.0 °F 10.4 °F 68% 30.12 in 10.0 mi North 13.8 mph - N/A   Mostly Cloudy
10:15 AM 19.4 °F 6.0 °F 10.4 °F 68% 30.12 in 10.0 mi North 13.8 mph 18.4 mph N/A   Mostly Cloudy
10:35 AM 19.4 °F 4.5 °F 8.6 °F 63% 30.12 in 10.0 mi North 17.3 mph 21.9 mph N/A   Overcast
10:55 AM 19.4 °F 4.5 °F 8.6 °F 63% 30.12 in 10.0 mi North 17.3 mph - N/A   Mostly Cloudy
11:15 AM 19.4 °F 5.5 °F 8.6 °F 63% 30.12 in 10.0 mi North 15.0 mph - N/A   Overcast
11:35 AM 19.4 °F 4.5 °F 6.8 °F 58% 30.12 in 10.0 mi North 17.3 mph 23.0 mph N/A   Overcast
11:55 AM 19.4 °F 7.9 °F 6.8 °F 58% 30.12 in 10.0 mi North 10.4 mph 17.3 mph N/A   Mostly Cloudy
12:15 PM 19.4 °F 7.9 °F 5.0 °F 54% 30.12 in 10.0 mi North 10.4 mph - N/A   Partly Cloudy
12:35 PM 21.2 °F 7.3 °F 6.8 °F 54% 30.11 in 10.0 mi North 16.1 mph 20.7 mph N/A   Clear
12:55 PM 21.2 °F 10.9 °F 3.2 °F 46% 30.11 in 10.0 mi North 9.2 mph - N/A   Clear
1:15 PM 21.2 °F 10.1 °F 3.2 °F 46% 30.13 in 10.0 mi North 10.4 mph 20.7 mph N/A   Clear
1:35 PM 21.2 °F 7.8 °F 3.2 °F 46% 30.13 in 10.0 mi NNW 15.0 mph - N/A   Clear
1:55 PM 21.2 °F 8.3 °F 3.2 °F 46% 30.13 in 10.0 mi North 13.8 mph 19.6 mph N/A   Clear
2:15 PM 21.2 °F 8.3 °F 3.2 °F 46% 30.13 in 10.0 mi NNW 13.8 mph - N/A   Clear
2:35 PM 21.2 °F 9.5 °F 5.0 °F 50% 30.13 in 10.0 mi NNW 11.5 mph 17.3 mph N/A   Clear
2:55 PM 21.2 °F 8.9 °F 6.8 °F 54% 30.14 in 10.0 mi North 12.7 mph 16.1 mph N/A   Clear
3:15 PM 21.2 °F 8.9 °F 6.8 °F 54% 30.14 in 10.0 mi North 12.7 mph 17.3 mph N/A   Clear
3:35 PM 21.2 °F 10.1 °F 6.8 °F 54% 30.15 in 10.0 mi North 10.4 mph 17.3 mph N/A   Mostly Cloudy
3:55 PM 21.2 °F 10.1 °F 6.8 °F 54% 30.15 in 10.0 mi North 10.4 mph - N/A   Overcast
4:15 PM 21.2 °F 9.5 °F 6.8 °F 54% 30.16 in 10.0 mi North 11.5 mph - N/A   Overcast
4:35 PM 21.2 °F 10.9 °F 6.8 °F 54% 30.16 in 10.0 mi NNW 9.2 mph - N/A   Overcast
4:55 PM 21.2 °F 8.3 °F 8.6 °F 58% 30.17 in 10.0 mi NNW 13.8 mph - N/A   Overcast
5:15 PM 21.2 °F 10.1 °F 8.6 °F 58% 30.17 in 10.0 mi North 10.4 mph - N/A   Overcast
5:35 PM 21.2 °F 9.5 °F 10.4 °F 63% 30.17 in 10.0 mi NNW 11.5 mph - N/A   Overcast
5:55 PM 21.2 °F 9.5 °F 10.4 °F 63% 30.17 in 10.0 mi North 11.5 mph 18.4 mph N/A   Overcast
6:15 PM 21.2 °F 7.8 °F 10.4 °F 63% 30.17 in 10.0 mi North 15.0 mph 20.7 mph N/A   Overcast
6:35 PM 21.2 °F 7.8 °F 8.6 °F 58% 30.17 in 10.0 mi North 15.0 mph 18.4 mph N/A   Overcast
6:55 PM 21.2 °F 7.8 °F 8.6 °F 58% 30.17 in 10.0 mi North 15.0 mph 21.9 mph N/A   Overcast
7:15 PM 21.2 °F 8.3 °F 8.6 °F 58% 30.17 in 10.0 mi North 13.8 mph - N/A   Overcast
7:35 PM 21.2 °F 8.9 °F 8.6 °F 58% 30.17 in 10.0 mi North 12.7 mph - N/A   Overcast
7:55 PM 21.2 °F 8.9 °F 8.6 °F 58% 30.17 in 10.0 mi NNW 12.7 mph - N/A   Overcast
8:15 PM 21.2 °F 9.5 °F 8.6 °F 58% 30.17 in 10.0 mi NNW 11.5 mph - N/A   Overcast
8:35 PM 21.2 °F 8.9 °F 8.6 °F 58% 30.17 in 10.0 mi NNW 12.7 mph - N/A   Overcast
8:55 PM 21.2 °F 8.9 °F 8.6 °F 58% 30.17 in 10.0 mi NNW 12.7 mph - N/A   Overcast
9:15 PM 21.2 °F 8.9 °F 8.6 °F 58% 30.17 in 10.0 mi NNW 12.7 mph - N/A   Overcast
9:35 PM 21.2 °F 8.9 °F 10.4 °F 63% 30.17 in 10.0 mi NNW 12.7 mph - N/A   Overcast
9:55 PM 19.4 °F 7.9 °F 10.4 °F 68% 30.17 in 10.0 mi NNW 10.4 mph - N/A   Overcast
10:15 PM 19.4 °F 7.9 °F 10.4 °F 68% 30.17 in 10.0 mi NNW 10.4 mph - N/A   Overcast
10:35 PM 19.4 °F 7.9 °F 12.2 °F 74% 30.17 in 10.0 mi NNW 10.4 mph - N/A   Overcast
10:55 PM 19.4 °F 7.9 °F 12.2 °F 74% 30.17 in 10.0 mi NNW 10.4 mph - N/A   Overcast
11:15 PM 19.4 °F 7.2 °F 12.2 °F 74% 30.17 in 10.0 mi NNW 11.5 mph - N/A   Overcast
11:35 PM 19.4 °F 6.6 °F 12.2 °F 74% 30.17 in 10.0 mi NNW 12.7 mph - N/A   Mostly Cloudy
11:55 PM 19.4 °F 6.6 °F 14.0 °F 80% 30.17 in 10.0 mi NNW 12.7 mph - N/A   Overcast